LROPLRTR

Guest
Details From LROP - Bucarest Otopeni Intl
To LRTR - Traian Vuia
Flight Number -
Tags Generated
Created
Modified
Stats Distance 215 nm / 398 km
Max Altitude 0 ft / 0 m
Waypoints 2
Social Downloads 0
Likes 0
Share VATSIM

Download

Looking for another format? Having issues loading an existing format? Contact us
Advertisement - Login to hide

Notes

Generated

Route

LROP LRTR

ID Type Via Altitude Latitude Longitude Leg Dist Tot Dist Heading (true) Name
O LROP APT - 0 ft / 0 m 44.57648˚ 26.08393˚ - 0 nm - -
O LRTR APT - 0 ft / 0 m 45.81514˚ 21.31676˚ 214 nm 214 nm 292° / 289° -

Altitude Profile

Advertisement - Login to hide

Weather


0- 5 10 15 20 25 30 35+ Temperature / ° C

Clouds and Precipitation
Forecast for 2017-12-11 18:00 UTC. Updated 29 minutes ago

Ground ~20,000 ft ~40,000 ft Winds

LROP

Details ICAO LROP (OTP)
Name Bucarest Otopeni Intl
Region Romania
Timezone Europe/Bucharest (UTC+2.0)
Stats Elevation 314 ft / 96 m (AMSL)
Location 44.572161° 26.102177°
Runways 2
Magnetic Variation 5.605° E

METAR

LROP 111330Z 22007KT CAVOK 05/M02 Q1015 NOSIG

Decode

TAF

TAF LROP 111100Z 1112/1212 24010KT CAVOK

Decode

Departure Runways

ID Width Length Bearing (true) Bearing (mag) Surface Threshold Offset Overrun Length
08L 148 ft / 45 m 11,457 ft / 3,492 m 83.91° 78.31° Asphalt 500 ft / 152 m 0 ft / 0 m
08R 148 ft / 45 m 11,455 ft / 3,491 m 83.89° 78.29° Asphalt 450 ft / 137 m 0 ft / 0 m
26L 148 ft / 45 m 11,455 ft / 3,491 m 263.92° 258.32° Asphalt 450 ft / 137 m 0 ft / 0 m
26R 148 ft / 45 m 11,457 ft / 3,492 m 263.94° 258.34° Asphalt 500 ft / 152 m 0 ft / 0 m

LRTR

Details ICAO LRTR (TSR)
Name TRAIAN VUIA
Region Romania
Timezone Europe/Bucharest (UTC+2.0)
Stats Elevation 348 ft / 106 m (AMSL)
Location 45.809834° 21.337872°
Runways 1
Magnetic Variation 4.972° E

METAR

LRTR 111330Z 16012KT CAVOK 09/02 Q1008 R11/250095

Decode

TAF

TAF LRTR 111100Z 1112/1212 18016KT CAVOK TEMPO 1112/1118 18018G28KT

Decode

Destination Runways

ID Width Length Bearing (true) Bearing (mag) Surface Threshold Offset Overrun Length
11 148 ft / 45 m 11,419 ft / 3,481 m 109.81° 104.84° Concrete 0 ft / 0 m 0 ft / 0 m
29 148 ft / 45 m 11,419 ft / 3,481 m 289.84° 284.87° Concrete 0 ft / 0 m 0 ft / 0 m

Approach Navaids

Runway Type Ident Frequency Range Bearing (true) Bearing (mag) Slope Elevation
29 Localiser ITR 109.30 MHz 18 nm / 33 km 289.80° 284.83° - 343 ft / 105 m (AMSL)
29 Glidescope ITR 109.30 MHz 10 nm / 19 km 289.82° 284.85° 3.00° 343 ft / 105 m (AMSL)
29 DME ITR 109.30 MHz 18 nm / 33 km - - - 399 ft / 122 m (AMSL)

Popular Alternatives